createdAt,value
2022-09-10T00:00:30.090Z,100192.17
2022-09-10T00:03:13.975Z,100193.09
2022-09-10T00:05:46.931Z,100187.36
2022-09-10T00:08:17.749Z,100180.80
2022-09-10T00:10:49.405Z,100179.53
2022-09-10T00:13:21.831Z,100181.96
2022-09-10T00:15:54.368Z,100174.61
2022-09-10T00:18:23.813Z,100172.12
2022-09-10T00:20:55.270Z,100170.39
2022-09-10T00:23:28.550Z,100171.19
2022-09-10T00:25:58.218Z,100169.97
2022-09-10T00:28:41.329Z,100173.70
2022-09-10T00:31:11.888Z,100172.96
2022-09-10T00:33:42.078Z,100166.33
2022-09-10T00:36:15.971Z,100157.09
2022-09-10T00:38:45.223Z,100160.36
2022-09-10T00:41:16.366Z,100168.80
2022-09-10T00:43:55.590Z,100167.14
2022-09-10T00:46:25.658Z,100163.55
2022-09-10T00:48:58.268Z,100160.98
2022-09-10T00:51:31.761Z,100161.07
2022-09-10T00:54:03.259Z,100156.08
2022-09-10T00:56:35.299Z,100155.48
2022-09-10T00:59:21.007Z,100156.48
2022-09-10T01:01:50.919Z,100152.27
2022-09-10T01:04:20.263Z,100155.04
2022-09-10T01:06:52.615Z,100153.08
2022-09-10T01:09:23.926Z,100154.98
2022-09-10T01:12:25.443Z,100156.63
2022-09-10T01:15:32.292Z,100149.75
2022-09-10T01:18:40.347Z,100149.98
2022-09-10T01:21:22.004Z,100147.66
2022-09-10T01:24:35.656Z,100149.46
2022-09-10T01:27:04.512Z,100144.04
2022-09-10T01:30:13.105Z,100145.58
2022-09-10T01:32:50.071Z,100142.14
2022-09-10T01:35:27.996Z,100141.77
2022-09-10T01:38:05.223Z,100144.36
2022-09-10T01:40:35.262Z,100139.60
2022-09-10T01:43:11.930Z,100133.02
2022-09-10T01:46:31.343Z,100130.46
2022-09-10T01:50:06.492Z,100126.79
2022-09-10T01:53:08.227Z,100122.50
2022-09-10T01:55:44.746Z,100117.96
2022-09-10T01:58:42.656Z,100115.55
2022-09-10T02:01:50.718Z,100115.84
2022-09-10T02:04:22.049Z,100111.79
2022-09-10T02:07:08.108Z,100114.34
2022-09-10T02:09:37.885Z,100109.52
2022-09-10T02:12:19.690Z,100111.46
2022-09-10T02:14:57.090Z,100110.94
2022-09-10T02:17:40.483Z,100107.19
2022-09-10T02:20:14.998Z,100108.08
2022-09-10T02:22:54.435Z,100102.53
2022-09-10T02:25:25.648Z,100102.95
2022-09-10T02:27:58.364Z,100104.93
2022-09-10T02:30:27.592Z,100105.23
2022-09-10T02:32:57.173Z,100102.59
2022-09-10T02:35:26.295Z,100098.91
2022-09-10T02:37:57.122Z,100099.11
2022-09-10T02:40:29.244Z,100100.58
2022-09-10T02:42:59.822Z,100099.23
2022-09-10T02:45:30.485Z,100099.27
2022-09-10T02:48:01.143Z,100094.15
2022-09-10T02:50:34.569Z,100091.30
2022-09-10T02:53:06.328Z,100087.04
2022-09-10T02:55:35.646Z,100080.48
2022-09-10T02:58:05.313Z,100082.95
2022-09-10T03:00:34.949Z,100080.92
2022-09-10T03:03:09.098Z,100078.70
2022-09-10T03:05:40.241Z,100078.02
2022-09-10T03:08:10.657Z,100077.02
2022-09-10T03:10:41.959Z,100074.80
2022-09-10T03:13:11.375Z,100069.02
2022-09-10T03:15:55.384Z,100071.66
2022-09-10T03:18:26.050Z,100067.84
2022-09-10T03:21:14.022Z,100069.30
2022-09-10T03:23:45.114Z,100066.36
2022-09-10T03:26:16.564Z,100064.78
2022-09-10T03:28:47.627Z,100062.16
2022-09-10T03:31:18.525Z,100065.00
2022-09-10T03:33:51.760Z,100063.57
2022-09-10T03:36:23.126Z,100065.29
2022-09-10T03:38:53.634Z,100062.17
2022-09-10T03:41:22.705Z,100065.41
2022-09-10T03:43:55.594Z,100062.59
2022-09-10T03:46:25.268Z,100056.91
2022-09-10T03:48:55.584Z,100056.48
2022-09-10T03:51:27.081Z,100054.81
2022-09-10T03:53:56.056Z,100048.52
2022-09-10T03:56:25.514Z,100054.98
2022-09-10T03:58:54.888Z,100057.59
2022-09-10T04:01:25.244Z,100053.59
2022-09-10T04:03:57.081Z,100055.39
2022-09-10T04:06:41.804Z,100054.21
2022-09-10T04:09:11.238Z,100052.80
2022-09-10T04:11:40.977Z,100052.23
2022-09-10T04:14:23.978Z,100046.77
2022-09-10T04:16:53.276Z,100048.67
2022-09-10T04:19:22.919Z,100053.79
2022-09-10T04:22:06.215Z,100057.51
2022-09-10T04:24:49.216Z,100060.11
2022-09-10T04:27:19.164Z,100050.33
2022-09-10T04:29:49.239Z,100048.71
2022-09-10T04:32:32.891Z,100049.87
2022-09-10T04:35:05.698Z,100044.33
2022-09-10T04:37:50.348Z,100040.45
2022-09-10T04:40:34.804Z,100041.85
2022-09-10T04:43:05.144Z,100040.53
2022-09-10T04:45:52.414Z,100036.76
2022-09-10T04:48:24.009Z,100036.27
2022-09-10T04:51:16.590Z,100036.67
2022-09-10T04:53:49.336Z,100039.20
2022-09-10T04:56:32.208Z,100043.80
2022-09-10T04:59:02.076Z,100045.64
2022-09-10T05:01:35.927Z,100042.60
2022-09-10T05:04:05.730Z,100040.10
2022-09-10T05:06:38.560Z,100036.45
2022-09-10T05:09:12.727Z,100032.47
2022-09-10T05:11:43.653Z,100027.70
2022-09-10T05:14:13.965Z,100023.23
2022-09-10T05:16:43.590Z,100019.80
2022-09-10T05:19:18.268Z,100016.44
2022-09-10T05:21:56.196Z,100019.65
2022-09-10T05:24:24.923Z,100027.00
2022-09-10T05:26:54.535Z,100025.02
2022-09-10T05:29:25.272Z,100028.73
2022-09-10T05:31:54.328Z,100032.30
2022-09-10T05:34:25.404Z,100040.92
2022-09-10T05:36:57.020Z,100047.20
2022-09-10T05:39:39.401Z,100044.25
2022-09-10T05:42:22.767Z,100047.65
2022-09-10T05:44:51.844Z,100049.70
2022-09-10T05:47:21.292Z,100055.76
2022-09-10T05:49:52.015Z,100059.28
2022-09-10T05:52:21.682Z,100057.58
2022-09-10T05:54:50.533Z,100060.33
2022-09-10T05:57:19.882Z,100057.30
2022-09-10T05:59:48.930Z,100059.02
2022-09-10T06:02:23.902Z,100059.44
2022-09-10T06:04:55.290Z,100062.02
2022-09-10T06:07:25.939Z,100060.91
2022-09-10T06:09:58.275Z,100058.65
2022-09-10T06:12:36.893Z,100055.27
2022-09-10T06:15:07.919Z,100051.59
2022-09-10T06:17:38.855Z,100056.29
2022-09-10T06:20:10.244Z,100052.52
2022-09-10T06:22:41.366Z,100048.91
2022-09-10T06:25:11.186Z,100050.57
2022-09-10T06:27:41.038Z,100050.42
2022-09-10T06:30:10.365Z,100052.31
2022-09-10T06:32:42.938Z,100051.52
2022-09-10T06:35:26.048Z,100048.23
2022-09-10T06:37:58.867Z,100042.96
2022-09-10T06:40:29.653Z,100043.48
2022-09-10T06:43:02.727Z,100043.06
2022-09-10T06:45:55.878Z,100043.61
2022-09-10T06:49:03.471Z,100039.54
2022-09-10T06:51:35.753Z,100039.98
2022-09-10T06:54:08.543Z,100043.67
2022-09-10T06:56:37.908Z,100044.96
2022-09-10T06:59:21.487Z,100039.76
2022-09-10T07:01:52.869Z,100038.08
2022-09-10T07:04:23.962Z,100032.45
2022-09-10T07:07:06.665Z,100032.45
2022-09-10T07:09:49.700Z,100027.05
2022-09-10T07:12:20.204Z,100021.42
2022-09-10T07:14:49.522Z,100021.31
2022-09-10T07:17:21.393Z,100020.72
2022-09-10T07:19:50.319Z,100013.37
2022-09-10T07:22:28.060Z,100016.25
2022-09-10T07:24:57.453Z,100018.08
2022-09-10T07:27:46.886Z,100019.39
2022-09-10T07:30:15.994Z,100018.48
2022-09-10T07:32:47.015Z,100020.79
2022-09-10T07:35:18.071Z,100019.34
2022-09-10T07:38:01.578Z,100021.02
2022-09-10T07:40:44.233Z,100028.31
2022-09-10T07:43:13.577Z,100033.60
2022-09-10T07:45:43.199Z,100031.83
2022-09-10T07:48:27.679Z,100023.54
2022-09-10T07:51:11.376Z,100021.71
2022-09-10T07:53:55.939Z,100018.59
2022-09-10T07:56:26.066Z,100022.38
2022-09-10T07:58:57.530Z,100022.41
2022-09-10T08:01:31.691Z,100027.99
2022-09-10T08:04:01.209Z,100028.89
2022-09-10T08:06:32.605Z,100022.84
2022-09-10T08:09:04.567Z,100020.28
2022-09-10T08:11:35.162Z,100021.05
2022-09-10T08:16:51.362Z,100015.82
2022-09-10T08:19:34.698Z,100015.52
2022-09-10T08:22:18.474Z,100017.80
2022-09-10T08:24:54.291Z,100020.10
2022-09-10T08:27:26.050Z,100021.55
2022-09-10T08:30:09.621Z,100025.55
2022-09-10T08:32:52.597Z,100023.71
2022-09-10T08:35:22.466Z,100025.27
2022-09-10T08:38:04.829Z,100028.15
2022-09-10T08:40:48.774Z,100025.13
2022-09-10T08:43:43.161Z,100023.17
2022-09-10T08:46:29.488Z,100019.72
2022-09-10T08:49:12.030Z,100026.78
2022-09-10T08:51:57.844Z,100033.31
2022-09-10T08:55:22.902Z,100036.55
2022-09-10T08:58:00.697Z,100035.42
2022-09-10T09:00:38.259Z,100031.96
2022-09-10T09:03:42.976Z,100031.80
2022-09-10T09:06:30.626Z,100033.35
2022-09-10T09:09:02.252Z,100035.92
2022-09-10T09:11:58.635Z,100038.67
2022-09-10T09:14:51.715Z,100037.01
2022-09-10T09:17:45.474Z,100037.13
2022-09-10T09:20:50.732Z,100040.89
2022-09-10T09:24:11.662Z,100037.55
2022-09-10T09:26:46.647Z,100034.02
2022-09-10T09:29:39.628Z,100033.76
2022-09-10T09:32:14.484Z,100032.99
2022-09-10T09:35:04.278Z,100027.58
2022-09-10T09:37:35.054Z,100028.31
2022-09-10T09:40:23.292Z,100027.78
2022-09-10T09:43:00.185Z,100024.14
2022-09-10T09:45:44.327Z,100021.30
2022-09-10T09:48:18.619Z,100017.92
2022-09-10T09:51:00.734Z,100013.95
2022-09-10T09:53:31.522Z,100016.73
2022-09-10T09:56:15.938Z,100015.94
2022-09-10T09:58:49.868Z,100011.20
2022-09-10T10:01:24.292Z,100007.50
2022-09-10T10:03:59.669Z,100004.80
2022-09-10T10:06:34.801Z,100001.98
2022-09-10T10:09:28.037Z,99999.86
2022-09-10T10:11:59.889Z,100000.55
2022-09-10T10:14:31.744Z,100004.48
2022-09-10T10:17:01.281Z,100008.92
2022-09-10T10:19:44.640Z,100009.89
2022-09-10T10:22:30.535Z,100013.05
2022-09-10T10:25:38.673Z,100010.39
2022-09-10T10:28:25.797Z,100010.97
2022-09-10T10:30:59.281Z,100008.39
2022-09-10T10:33:31.876Z,100006.63
2022-09-10T10:36:24.289Z,100008.45
2022-09-10T10:39:12.586Z,100001.84
2022-09-10T10:42:00.114Z,100006.66
2022-09-10T10:44:36.101Z,100006.69
2022-09-10T10:47:05.310Z,100005.53
2022-09-10T10:49:53.600Z,100006.80
2022-09-10T10:52:38.530Z,100004.95
2022-09-10T10:55:30.018Z,100007.38
2022-09-10T10:58:16.856Z,100007.61
2022-09-10T11:01:05.623Z,100006.31
2022-09-10T11:03:49.044Z,100000.95
2022-09-10T11:06:39.316Z,100001.91
2022-09-10T11:09:34.583Z,99998.33
2022-09-10T11:12:07.611Z,99993.85
2022-09-10T11:14:45.310Z,99987.16
2022-09-10T11:17:35.281Z,99983.89
2022-09-10T11:20:34.265Z,99984.06
2022-09-10T11:23:30.127Z,99991.56
2022-09-10T11:26:12.739Z,99989.81
2022-09-10T11:29:00.720Z,99992.11
2022-09-10T11:31:32.260Z,99988.51
2022-09-10T11:34:32.040Z,99986.54
2022-09-10T11:37:13.185Z,99985.21
2022-09-10T11:39:53.433Z,99984.64
2022-09-10T11:42:34.446Z,99987.09
2022-09-10T11:45:07.902Z,99984.84
2022-09-10T11:47:44.507Z,99980.99
2022-09-10T11:50:34.854Z,99980.32
2022-09-10T11:53:07.822Z,99981.11
2022-09-10T11:55:58.094Z,99981.75
2022-09-10T11:58:53.116Z,99985.35
2022-09-10T12:01:33.934Z,99979.98
2022-09-10T12:04:27.949Z,99972.84
2022-09-10T12:07:29.163Z,99968.14
2022-09-10T12:10:24.361Z,99965.11
2022-09-10T12:12:53.748Z,99964.16
2022-09-10T12:15:38.118Z,99959.84
2022-09-10T12:18:14.663Z,99954.45
2022-09-10T12:21:07.885Z,99951.95
2022-09-10T12:23:40.311Z,99945.72
2022-09-10T12:26:12.409Z,99951.61
2022-09-10T12:28:57.897Z,99952.05
2022-09-10T12:31:27.993Z,99953.04
2022-09-10T12:34:20.188Z,99957.86
2022-09-10T12:36:49.160Z,99959.52
2022-09-10T12:39:32.218Z,99956.48
2022-09-10T12:42:23.715Z,99952.91
2022-09-10T12:44:52.994Z,99946.37
2022-09-10T12:47:42.706Z,99943.23
2022-09-10T12:50:34.767Z,99937.29
2022-09-10T12:53:42.037Z,99939.32
2022-09-10T12:56:48.786Z,99947.48
2022-09-10T12:59:45.059Z,99953.09
2022-09-10T13:02:33.481Z,99951.44
2022-09-10T13:05:10.979Z,99950.44
2022-09-10T13:07:44.439Z,99953.19
2022-09-10T13:10:26.037Z,99948.89
2022-09-10T13:13:05.607Z,99947.32
2022-09-10T13:15:39.619Z,99942.09
2022-09-10T13:18:26.566Z,99936.71
2022-09-10T13:20:59.738Z,99930.58
2022-09-10T13:23:48.461Z,99928.53
2022-09-10T13:26:32.459Z,99929.76
2022-09-10T13:29:33.467Z,99926.94
2022-09-10T13:32:07.527Z,99924.73
2022-09-10T13:35:01.744Z,99925.95
2022-09-10T13:37:56.960Z,99924.66
2022-09-10T13:40:57.342Z,99920.77
2022-09-10T13:44:03.730Z,99918.08
2022-09-10T13:46:41.945Z,99917.55
2022-09-10T13:49:32.184Z,99917.48
2022-09-10T13:52:05.170Z,99915.07
2022-09-10T13:54:47.467Z,99915.26
2022-09-10T13:57:22.903Z,99912.42
2022-09-10T13:59:58.147Z,99909.02
2022-09-10T14:02:48.670Z,99908.95
2022-09-10T14:05:37.161Z,99903.05
2022-09-10T14:08:14.796Z,99907.66
2022-09-10T14:10:57.468Z,99903.32
2022-09-10T14:13:49.852Z,99900.59
2022-09-10T14:16:41.360Z,99899.98
2022-09-10T14:19:42.864Z,99899.79
2022-09-10T14:22:22.826Z,99900.31
2022-09-10T14:24:57.448Z,99899.17
2022-09-10T14:27:35.232Z,99896.73
2022-09-10T14:30:23.233Z,99895.65
2022-09-10T14:32:53.234Z,99896.83
2022-09-10T14:35:46.279Z,99899.21
2022-09-10T14:38:25.786Z,99901.08
2022-09-10T14:41:40.907Z,99902.55
2022-09-10T14:44:23.263Z,99904.16
2022-09-10T14:47:08.723Z,99901.83
2022-09-10T14:49:41.835Z,99898.00
2022-09-10T14:52:12.049Z,99894.50
2022-09-10T14:54:41.184Z,99894.19
2022-09-10T14:57:14.988Z,99893.23
2022-09-10T14:59:46.498Z,99891.84
2022-09-10T15:02:29.189Z,99894.67
2022-09-10T15:04:58.084Z,99891.28
2022-09-10T15:07:28.179Z,99891.87
2022-09-10T15:09:56.981Z,99895.93
2022-09-10T15:12:29.470Z,99893.04
2022-09-10T15:15:00.341Z,99893.73
2022-09-10T15:17:29.701Z,99890.77
2022-09-10T15:19:58.419Z,99883.89
2022-09-10T15:22:29.836Z,99883.91
2022-09-10T15:25:26.389Z,99880.87
2022-09-10T15:27:55.912Z,99879.81
2022-09-10T15:30:38.454Z,99879.86
2022-09-10T15:33:21.963Z,99875.45
2022-09-10T15:35:51.265Z,99873.51
2022-09-10T15:38:22.384Z,99872.63
2022-09-10T15:41:06.966Z,99870.73
2022-09-10T15:43:44.709Z,99872.48
2022-09-10T15:46:17.086Z,99870.60
2022-09-10T15:49:00.158Z,99867.79
2022-09-10T15:51:29.630Z,99868.58
2022-09-10T15:54:02.983Z,99867.80
2022-09-10T15:56:34.725Z,99868.89
2022-09-10T15:59:06.194Z,99868.52
2022-09-10T16:01:39.193Z,99867.80
2022-09-10T16:04:10.443Z,99870.91
2022-09-10T16:06:53.967Z,99870.30
2022-09-10T16:09:23.932Z,99872.56
2022-09-10T16:11:52.502Z,99873.39
2022-09-10T16:14:35.024Z,99878.75
2022-09-10T16:17:11.035Z,99878.53
2022-09-10T16:19:40.242Z,99877.12
2022-09-10T16:22:09.191Z,99882.58
2022-09-10T16:24:37.716Z,99880.43
2022-09-10T16:27:21.181Z,99879.58
2022-09-10T16:30:04.211Z,99883.50
2022-09-10T16:32:33.503Z,99887.37
2022-09-10T16:35:04.896Z,99883.38
2022-09-10T16:37:35.284Z,99885.34
2022-09-10T16:40:05.758Z,99883.20
2022-09-10T16:42:34.907Z,99880.56
2022-09-10T16:45:04.384Z,99881.85
2022-09-10T16:47:38.473Z,99883.34
2022-09-10T16:50:08.391Z,99882.70
2022-09-10T16:52:41.047Z,99877.77
2022-09-10T16:55:09.782Z,99884.36
2022-09-10T16:57:39.245Z,99882.77
2022-09-10T17:00:13.481Z,99882.46
2022-09-10T17:02:44.062Z,99877.35
2022-09-10T17:05:14.109Z,99877.40
2022-09-10T17:07:42.773Z,99875.36
2022-09-10T17:10:12.858Z,99875.33
2022-09-10T17:12:43.833Z,99874.71
2022-09-10T17:15:13.576Z,99876.13
2022-09-10T17:17:42.815Z,99876.64
2022-09-10T17:20:11.786Z,99874.48
2022-09-10T17:22:40.573Z,99874.67
2022-09-10T17:25:10.338Z,99871.48
2022-09-10T17:27:40.779Z,99873.04
2022-09-10T17:30:11.036Z,99873.10
2022-09-10T17:32:40.624Z,99871.20
2022-09-10T17:35:11.394Z,99870.81
2022-09-10T17:37:54.521Z,99865.36
2022-09-10T17:40:24.385Z,99868.02
2022-09-10T17:42:55.664Z,99868.36
2022-09-10T17:45:30.123Z,99868.24
2022-09-10T17:47:59.554Z,99864.08
2022-09-10T17:50:28.094Z,99861.45
2022-09-10T17:52:57.893Z,99858.98
2022-09-10T17:55:30.448Z,99855.54
2022-09-10T17:58:02.419Z,99853.84
2022-09-10T18:00:32.087Z,99853.57
2022-09-10T18:03:00.827Z,99850.47
2022-09-10T18:05:30.075Z,99849.46
2022-09-10T18:07:59.260Z,99850.76
2022-09-10T18:10:27.894Z,99848.84
2022-09-10T18:13:00.279Z,99852.50
2022-09-10T18:15:30.308Z,99851.27
2022-09-10T18:17:59.645Z,99853.19
2022-09-10T18:20:29.971Z,99853.23
2022-09-10T18:22:59.586Z,99850.20
2022-09-10T18:25:31.370Z,99849.48
2022-09-10T18:28:02.077Z,99852.77
2022-09-10T18:30:32.105Z,99854.50
2022-09-10T18:33:01.302Z,99854.34
2022-09-10T18:35:44.545Z,99850.27
2022-09-10T18:38:17.417Z,99852.21
2022-09-10T18:40:46.156Z,99848.14
2022-09-10T18:43:16.486Z,99849.38
2022-09-10T18:45:48.228Z,99847.80
2022-09-10T18:51:20.109Z,99850.27
2022-09-10T18:53:57.896Z,99855.54
2022-09-10T18:56:32.170Z,99853.27
2022-09-10T18:59:08.255Z,99854.14
2022-09-10T19:01:39.629Z,99852.87
2022-09-10T19:04:10.316Z,99852.50
2022-09-10T19:06:43.561Z,99850.22
2022-09-10T19:09:18.026Z,99853.12
2022-09-10T19:11:50.141Z,99853.58
2022-09-10T19:14:33.723Z,99854.46
2022-09-10T19:17:04.657Z,99855.53
2022-09-10T19:19:37.695Z,99860.19
2022-09-10T19:22:12.040Z,99860.29
2022-09-10T19:24:54.494Z,99860.20
2022-09-10T19:27:25.575Z,99863.36
2022-09-10T19:29:57.170Z,99862.20
2022-09-10T19:32:30.581Z,99857.73
2022-09-10T19:35:01.446Z,99853.38
2022-09-10T19:37:32.029Z,99849.63
2022-09-10T19:40:04.140Z,99849.39
2022-09-10T19:42:37.058Z,99848.50
2022-09-10T19:45:10.029Z,99846.68
2022-09-10T19:47:42.446Z,99842.64
2022-09-10T19:50:14.747Z,99841.36
2022-09-10T19:52:44.808Z,99840.19
2022-09-10T19:55:14.982Z,99839.38
2022-09-10T19:57:44.792Z,99837.48
2022-09-10T20:00:36.042Z,99833.99
2022-09-10T20:03:04.715Z,99835.63
2022-09-10T20:05:34.758Z,99832.39
2022-09-10T20:08:05.040Z,99831.19
2022-09-10T20:10:33.955Z,99828.84
2022-09-10T20:13:06.014Z,99829.16
2022-09-10T20:15:43.489Z,99827.02
2022-09-10T20:18:14.535Z,99820.87
2022-09-10T20:20:43.297Z,99819.31
2022-09-10T20:23:12.050Z,99820.04
2022-09-10T20:25:40.750Z,99817.77
2022-09-10T20:28:10.939Z,99814.58
2022-09-10T20:30:40.062Z,99816.41
2022-09-10T20:33:09.986Z,99815.88
2022-09-10T20:35:43.786Z,99815.98
2022-09-10T20:38:15.801Z,99809.85
2022-09-10T20:40:46.820Z,99809.23
2022-09-10T20:43:17.611Z,99810.42
2022-09-10T20:45:50.265Z,99806.52
2022-09-10T20:48:21.172Z,99803.59
2022-09-10T20:50:56.544Z,99803.05
2022-09-10T20:53:29.452Z,99801.63
2022-09-10T20:56:12.070Z,99806.63
2022-09-10T20:58:42.220Z,99803.25
2022-09-10T21:01:16.696Z,99797.80
2022-09-10T21:03:48.521Z,99793.29
2022-09-10T21:06:21.542Z,99794.55
2022-09-10T21:08:50.383Z,99790.76
2022-09-10T21:11:22.489Z,99791.83
2022-09-10T21:13:57.247Z,99793.05
2022-09-10T21:16:30.267Z,99793.10
2022-09-10T21:19:09.688Z,99793.09
2022-09-10T21:21:39.954Z,99792.89
2022-09-10T21:26:57.801Z,99793.40
2022-09-10T21:29:28.600Z,99792.94
2022-09-10T21:31:58.018Z,99792.50
2022-09-10T21:34:31.493Z,99789.77
2022-09-10T21:37:03.863Z,99788.75
2022-09-10T21:39:48.165Z,99786.00
2022-09-10T21:42:17.190Z,99788.24
2022-09-10T21:45:00.029Z,99787.55
2022-09-10T21:50:30.927Z,99787.04
2022-09-10T21:53:02.169Z,99784.52
2022-09-10T21:55:47.599Z,99786.00
2022-09-10T21:58:17.159Z,99785.85
2022-09-10T22:00:47.648Z,99788.12
2022-09-10T22:03:17.227Z,99784.91
2022-09-10T22:06:11.894Z,99786.95
2022-09-10T22:08:45.586Z,99783.88
2022-09-10T22:11:29.274Z,99786.84
2022-09-10T22:14:18.001Z,99783.95
2022-09-10T22:16:47.988Z,99784.73
2022-09-10T22:19:30.423Z,99784.67
2022-09-10T22:22:12.751Z,99786.49
2022-09-10T22:24:42.928Z,99784.48
2022-09-10T22:27:12.393Z,99780.80
2022-09-10T22:29:51.861Z,99781.06
2022-09-10T22:32:34.699Z,99777.90
2022-09-10T22:35:04.301Z,99774.08
2022-09-10T22:37:46.491Z,99774.15
2022-09-10T22:40:15.402Z,99774.67
2022-09-10T22:42:59.163Z,99772.89
2022-09-10T22:45:28.950Z,99771.92
2022-09-10T22:47:57.674Z,99772.20
2022-09-10T22:50:27.320Z,99769.89
2022-09-10T22:52:56.250Z,99768.85
2022-09-10T22:55:25.647Z,99765.80
2022-09-10T22:58:08.229Z,99762.96
2022-09-10T23:00:51.500Z,99754.29
2022-09-10T23:03:35.202Z,99754.95
2022-09-10T23:06:07.302Z,99753.41
2022-09-10T23:08:52.229Z,99753.96
2022-09-10T23:11:37.509Z,99753.55
2022-09-10T23:14:14.044Z,99750.85
2022-09-10T23:16:45.195Z,99748.00
2022-09-10T23:19:16.908Z,99748.70
2022-09-10T23:21:59.213Z,99748.39
2022-09-10T23:24:28.852Z,99743.06
2022-09-10T23:27:11.640Z,99743.21
2022-09-10T23:29:41.393Z,99740.15
2022-09-10T23:32:23.762Z,99738.48
2022-09-10T23:35:09.377Z,99736.87
2022-09-10T23:37:38.510Z,99735.35
2022-09-10T23:40:08.578Z,99738.11
2022-09-10T23:42:37.330Z,99736.62
2022-09-10T23:45:19.827Z,99736.77
2022-09-10T23:48:03.881Z,99733.17
2022-09-10T23:50:33.209Z,99729.27
2022-09-10T23:53:02.443Z,99727.08
2022-09-10T23:55:37.098Z,99724.33
2022-09-10T23:58:20.355Z,99721.12
